createdAt,value
2019-02-22T05:02:27.779Z,102941.73
2019-02-22T05:04:58.357Z,102950.36
2019-02-22T05:07:28.841Z,102949.83
2019-02-22T05:09:59.683Z,102965.66
2019-02-22T05:12:30.219Z,102963.07
2019-02-22T05:15:12.077Z,102960.83
2019-02-22T05:17:35.677Z,102973.72
2019-02-22T05:20:05.688Z,102972.84
2019-02-22T05:22:36.186Z,102978.77
2019-02-22T05:25:07.831Z,102984.01
2019-02-22T05:27:38.251Z,102993.46
2019-02-22T05:30:09.331Z,102989.53
2019-02-22T05:32:40.098Z,102989.81
2019-02-22T05:35:12.382Z,102987.43
2019-02-22T05:37:42.894Z,102992.51
2019-02-22T05:40:13.419Z,102991.72
2019-02-22T05:42:44.621Z,103005.83
2019-02-22T05:45:15.112Z,103004.52
2019-02-22T05:47:45.598Z,103012.50
2019-02-22T05:50:16.251Z,103019.33
2019-02-22T05:52:46.743Z,103029.49
2019-02-22T05:55:17.428Z,103036.95
2019-02-22T05:57:47.902Z,103045.19
2019-02-22T06:00:19.160Z,103050.87
2019-02-22T06:02:49.758Z,103050.22
2019-02-22T06:05:20.388Z,103060.98
2019-02-22T06:07:50.879Z,103061.64
2019-02-22T06:10:21.375Z,103063.64
2019-02-22T06:12:51.868Z,103071.14
2019-02-22T06:15:22.494Z,103075.50
2019-02-22T06:17:53.054Z,103082.48
2019-02-22T06:20:23.624Z,103093.51
2019-02-22T06:22:54.075Z,103093.11
2019-02-22T06:25:24.639Z,103102.84
2019-02-22T06:27:55.226Z,103109.56
2019-02-22T06:30:25.896Z,103118.34
2019-02-22T06:32:56.444Z,103119.59
2019-02-22T06:35:26.951Z,103132.98
2019-02-22T06:37:57.529Z,103146.09
2019-02-22T06:40:28.149Z,103150.49
2019-02-22T06:42:58.641Z,103161.22
2019-02-22T06:45:29.131Z,103159.81
2019-02-22T06:47:59.710Z,103158.66
2019-02-22T06:53:02.421Z,103170.94
2019-02-22T06:55:32.948Z,103176.80
2019-02-22T06:58:03.388Z,103176.73
2019-02-22T07:00:33.877Z,103173.91
2019-02-22T07:03:04.558Z,103191.59
2019-02-22T07:05:35.035Z,103195.52
2019-02-22T07:08:05.562Z,103207.03
2019-02-22T07:11:13.450Z,103211.09
2019-02-22T07:13:43.957Z,103222.80
2019-02-22T07:16:14.481Z,103222.40
2019-02-22T07:18:45.022Z,103230.42
2019-02-22T07:21:15.527Z,103235.69
2019-02-22T07:23:46.034Z,103237.34
2019-02-22T07:26:16.541Z,103238.89
2019-02-22T07:28:47.072Z,103246.16
2019-02-22T07:31:17.603Z,103252.30
2019-02-22T07:33:48.323Z,103260.25
2019-02-22T07:36:18.874Z,103275.91
2019-02-22T07:38:49.376Z,103278.20
2019-02-22T07:41:19.919Z,103283.43
2019-02-22T07:43:50.583Z,103284.10
2019-02-22T07:46:21.095Z,103291.23
2019-02-22T07:48:51.683Z,103292.25
2019-02-22T07:51:22.167Z,103302.27
2019-02-22T07:53:52.691Z,103307.59
2019-02-22T07:56:23.221Z,103320.28
2019-02-22T07:58:53.842Z,103324.63
2019-02-22T08:01:26.909Z,103322.81
2019-02-22T08:03:56.888Z,103331.43
2019-02-22T08:06:27.439Z,103335.13
2019-02-22T08:08:57.959Z,103336.95
2019-02-22T08:11:28.413Z,103340.60
2019-02-22T08:13:58.937Z,103341.71
2019-02-22T08:16:29.485Z,103350.50
2019-02-22T08:19:01.764Z,103355.96
2019-02-22T08:21:32.289Z,103358.86
2019-02-22T08:24:02.771Z,103373.09
2019-02-22T08:26:33.302Z,103375.96
2019-02-22T08:29:03.896Z,103383.36
2019-02-22T08:31:34.384Z,103374.55
2019-02-22T08:34:04.939Z,103386.22
2019-02-22T08:36:35.433Z,103397.88
2019-02-22T08:39:06.546Z,103396.16
2019-02-22T08:41:37.117Z,103406.81
2019-02-22T08:44:07.551Z,103415.52
2019-02-22T08:46:38.162Z,103403.66
2019-02-22T08:49:08.697Z,103406.25
2019-02-22T08:51:39.209Z,103415.44
2019-02-22T08:54:09.695Z,103406.27
2019-02-22T08:56:40.233Z,103424.31
2019-02-22T08:59:10.775Z,103424.44
2019-02-22T09:01:41.276Z,103422.47
2019-02-22T09:04:11.881Z,103439.13
2019-02-22T09:06:42.407Z,103437.62
2019-02-22T09:09:12.919Z,103444.59
2019-02-22T09:11:43.446Z,103457.84
2019-02-22T09:14:13.980Z,103459.47
2019-02-22T09:16:44.525Z,103468.84
2019-02-22T09:19:15.080Z,103471.58
2019-02-22T09:21:45.614Z,103476.80
2019-02-22T09:24:16.101Z,103482.03
2019-02-22T09:26:46.688Z,103485.53
2019-02-22T09:29:17.165Z,103491.47
2019-02-22T09:31:48.069Z,103494.95
2019-02-22T09:34:18.663Z,103497.24
2019-02-22T09:36:49.135Z,103504.89
2019-02-22T09:39:19.718Z,103507.73
2019-02-22T09:41:50.238Z,103508.24
2019-02-22T09:44:20.850Z,103518.41
2019-02-22T09:46:51.348Z,103518.99
2019-02-22T09:49:22.003Z,103517.17
2019-02-22T09:51:52.501Z,103522.60
2019-02-22T09:54:23.031Z,103529.17
2019-02-22T09:56:53.556Z,103533.12
2019-02-22T09:59:24.081Z,103529.27
2019-02-22T10:01:54.614Z,103529.77
2019-02-22T10:04:25.150Z,103532.38
2019-02-22T10:06:55.639Z,103543.30
2019-02-22T10:25:33.973Z,103553.47
2019-02-22T10:28:04.482Z,103549.02
2019-02-22T10:30:34.999Z,103554.42
2019-02-22T10:33:05.509Z,103564.81
2019-02-22T10:35:35.977Z,103557.56
2019-02-22T10:38:06.515Z,103554.86
2019-02-22T10:40:39.250Z,103561.95
2019-02-22T10:43:09.260Z,103559.99
2019-02-22T10:45:39.779Z,103565.03
2019-02-22T10:48:10.303Z,103569.55
2019-02-22T10:50:40.838Z,103576.75
2019-02-22T10:53:11.378Z,103585.66
2019-02-22T10:55:41.922Z,103582.30
2019-02-22T10:58:15.158Z,103592.61
2019-02-22T11:00:45.647Z,103590.02
2019-02-22T11:03:16.134Z,103592.06
2019-02-22T11:05:46.590Z,103599.11
2019-02-22T11:08:17.110Z,103593.75
2019-02-22T11:10:47.704Z,103590.16
2019-02-22T11:13:18.191Z,103592.89
2019-02-22T11:15:48.680Z,103591.41
2019-02-22T11:18:19.170Z,103588.41
2019-02-22T11:20:49.637Z,103590.31
2019-02-22T11:23:20.196Z,103589.33
2019-02-22T11:25:50.658Z,103589.22
2019-02-22T11:28:21.127Z,103594.85
2019-02-22T11:30:51.542Z,103605.86
2019-02-22T11:33:22.014Z,103604.33
2019-02-22T11:35:52.496Z,103609.27
2019-02-22T11:38:22.976Z,103612.14
2019-02-22T11:40:53.426Z,103610.51
2019-02-22T11:43:23.920Z,103617.95
2019-02-22T11:45:54.393Z,103618.31
2019-02-22T11:48:24.922Z,103614.93
2019-02-22T11:50:55.385Z,103619.70
2019-02-22T11:53:25.903Z,103613.19
2019-02-22T11:55:56.474Z,103613.90
2019-02-22T11:58:26.955Z,103613.48
2019-02-22T12:00:57.453Z,103614.50
2019-02-22T12:03:27.928Z,103617.13
2019-02-22T12:05:58.390Z,103617.86
2019-02-22T12:08:28.863Z,103615.38
2019-02-22T12:10:59.380Z,103613.81
2019-02-22T12:13:32.101Z,103635.34
2019-02-22T12:16:02.073Z,103630.10
2019-02-22T12:18:32.535Z,103628.05
2019-02-22T12:21:03.027Z,103624.88
2019-02-22T12:23:33.566Z,103627.18
2019-02-22T12:26:04.033Z,103637.67
2019-02-22T12:28:34.515Z,103627.18
2019-02-22T12:31:05.515Z,103625.77
2019-02-22T12:33:35.989Z,103624.25
2019-02-22T12:36:06.457Z,103619.03
2019-02-22T12:38:36.986Z,103630.08
2019-02-22T12:41:07.489Z,103631.19
2019-02-22T12:43:37.953Z,103639.70
2019-02-22T12:46:08.466Z,103645.86
2019-02-22T12:48:38.957Z,103644.20
2019-02-22T12:51:09.462Z,103641.28
2019-02-22T12:53:39.988Z,103639.63
2019-02-22T12:56:10.495Z,103641.45
2019-02-22T12:58:40.850Z,103649.55
2019-02-22T13:01:11.389Z,103652.08
2019-02-22T13:03:41.866Z,103655.14
2019-02-22T13:06:12.321Z,103662.52
2019-02-22T13:08:42.959Z,103660.75
2019-02-22T13:11:13.343Z,103665.89
2019-02-22T13:13:43.865Z,103669.33
2019-02-22T13:16:14.382Z,103670.20
2019-02-22T13:18:44.888Z,103676.50
2019-02-22T13:21:15.412Z,103669.67
2019-02-22T13:23:45.917Z,103661.77
2019-02-22T13:26:18.025Z,103648.77
2019-02-22T13:28:48.731Z,103644.77
2019-02-22T13:31:29.457Z,103634.88
2019-02-22T13:33:51.443Z,103632.50
2019-02-22T13:36:22.349Z,103628.73
2019-02-22T13:38:52.906Z,103647.28
2019-02-22T13:41:23.416Z,103654.66
2019-02-22T13:43:53.975Z,103648.94
2019-02-22T13:46:26.555Z,103643.13
2019-02-22T13:48:56.726Z,103646.97
2019-02-22T13:51:27.284Z,103645.47
2019-02-22T13:53:57.897Z,103649.91
2019-02-22T13:56:29.952Z,103652.36
2019-02-22T13:59:00.651Z,103652.53
2019-02-22T14:01:31.165Z,103663.89
2019-02-22T14:04:01.652Z,103665.41
2019-02-22T14:06:32.133Z,103662.95
2019-02-22T14:09:02.621Z,103658.57
2019-02-22T14:11:33.168Z,103661.73
2019-02-22T14:14:03.653Z,103669.63
2019-02-22T14:16:34.208Z,103677.41
2019-02-22T14:19:04.751Z,103681.13
2019-02-22T14:21:35.335Z,103683.28
2019-02-22T14:24:05.931Z,103685.50
2019-02-22T14:26:36.419Z,103695.57
2019-02-22T14:29:06.970Z,103693.75
2019-02-22T14:31:37.466Z,103694.32
2019-02-22T14:34:07.988Z,103678.50
2019-02-22T14:36:38.524Z,103673.89
2019-02-22T14:39:09.887Z,103674.95
2019-02-22T14:41:40.415Z,103681.92
2019-02-22T14:44:10.955Z,103677.92
2019-02-22T14:46:41.543Z,103680.25
2019-02-22T14:49:12.119Z,103672.93
2019-02-22T14:51:42.664Z,103679.00
2019-02-22T14:54:13.219Z,103682.72
2019-02-22T14:56:43.780Z,103684.81
2019-02-22T14:59:14.549Z,103688.48
2019-02-22T15:01:45.068Z,103684.53
2019-02-22T15:04:16.438Z,103681.53
2019-02-22T15:06:47.069Z,103680.13
2019-02-22T15:09:17.563Z,103683.16
2019-02-22T15:11:48.076Z,103688.66
2019-02-22T15:14:18.552Z,103704.31
2019-02-22T15:17:06.797Z,103699.08
2019-02-22T15:19:37.513Z,103701.21
2019-02-22T15:22:08.087Z,103697.02
2019-02-22T15:24:38.715Z,103695.52
2019-02-22T15:27:09.215Z,103696.45
2019-02-22T15:29:39.743Z,103704.83
2019-02-22T15:32:10.281Z,103704.45
2019-02-22T15:34:41.134Z,103710.28
2019-02-22T15:37:11.949Z,103709.33
2019-02-22T15:39:42.471Z,103706.34
2019-02-22T15:42:12.976Z,103691.81
2019-02-22T15:44:43.514Z,103706.10
2019-02-22T15:47:14.069Z,103717.70
2019-02-22T15:49:44.538Z,103717.23
2019-02-22T15:52:15.118Z,103709.44
2019-02-22T15:54:45.648Z,103717.45
2019-02-22T15:57:16.143Z,103714.49
2019-02-22T15:59:46.670Z,103715.83
2019-02-22T16:02:17.238Z,103721.03
2019-02-22T16:04:57.715Z,103730.01
2019-02-22T16:07:29.232Z,103738.26
2019-02-22T16:09:59.735Z,103740.45
2019-02-22T16:12:30.283Z,103731.87
2019-02-22T16:15:00.796Z,103727.64
2019-02-22T16:17:31.390Z,103735.55
2019-02-22T16:20:02.050Z,103743.69
2019-02-22T16:22:33.035Z,103751.92
2019-02-22T16:25:03.631Z,103760.22
2019-02-22T16:27:34.278Z,103752.35
2019-02-22T16:30:06.227Z,103757.73
2019-02-22T16:32:36.871Z,103761.40
2019-02-22T16:35:07.785Z,103774.59
2019-02-22T16:37:38.310Z,103772.19
2019-02-22T16:40:15.724Z,103771.25
2019-02-22T16:42:46.278Z,103776.69
2019-02-22T16:45:17.075Z,103775.92
2019-02-22T16:47:47.708Z,103780.08
2019-02-22T16:50:18.554Z,103785.77
2019-02-22T16:52:49.158Z,103778.45
2019-02-22T16:55:19.792Z,103776.84
2019-02-22T16:57:50.433Z,103779.64
2019-02-22T17:00:21.771Z,103777.08
2019-02-22T17:02:52.362Z,103782.81
2019-02-22T17:05:23.067Z,103794.60
2019-02-22T17:07:53.715Z,103802.94
2019-02-22T17:10:26.629Z,103804.72
2019-02-22T17:12:57.180Z,103808.75
2019-02-22T17:15:27.840Z,103806.98
2019-02-22T17:17:58.720Z,103793.55
2019-02-22T17:20:57.721Z,103797.02
2019-02-22T17:23:35.699Z,103794.90
2019-02-22T17:26:08.604Z,103786.91
2019-02-22T17:28:39.225Z,103792.28
2019-02-22T17:31:10.813Z,103792.87
2019-02-22T17:33:41.531Z,103803.33
2019-02-22T17:36:12.289Z,103812.89
2019-02-22T17:38:42.881Z,103827.77
2019-02-22T17:41:13.503Z,103828.65
2019-02-22T17:43:44.135Z,103839.10
2019-02-22T17:46:14.742Z,103836.91
2019-02-22T17:48:45.395Z,103834.36
2019-02-22T17:51:17.161Z,103833.98
2019-02-22T17:53:47.818Z,103838.78
2019-02-22T17:56:18.423Z,103848.41
2019-02-22T17:58:48.951Z,103855.93
2019-02-22T18:01:19.484Z,103854.13
2019-02-22T18:03:50.089Z,103850.63
2019-02-22T18:06:20.617Z,103844.59
2019-02-22T18:08:51.203Z,103850.23
2019-02-22T18:11:21.780Z,103861.62
2019-02-22T18:13:52.331Z,103850.30
2019-02-22T18:16:22.836Z,103849.47
2019-02-22T18:18:53.400Z,103845.61
2019-02-22T18:21:23.945Z,103846.08
2019-02-22T18:23:54.472Z,103840.81
2019-02-22T18:26:25.015Z,103841.75
2019-02-22T18:28:55.545Z,103844.79
2019-02-22T18:31:26.066Z,103850.12
2019-02-22T18:33:56.992Z,103864.08
2019-02-22T18:36:28.078Z,103867.53
2019-02-22T18:38:58.678Z,103865.34
2019-02-22T18:41:29.401Z,103872.74
2019-02-22T18:44:00.063Z,103870.14
2019-02-22T18:46:30.596Z,103862.36
2019-02-22T18:49:01.335Z,103856.70
2019-02-22T18:51:32.535Z,103851.44
2019-02-22T18:54:03.047Z,103842.39
2019-02-22T18:56:33.661Z,103841.09
2019-02-22T18:59:04.185Z,103838.48
2019-02-22T19:01:34.786Z,103829.28
2019-02-22T19:04:05.481Z,103824.16
2019-02-22T19:06:35.983Z,103826.83
2019-02-22T19:09:07.856Z,103832.89
2019-02-22T19:11:39.223Z,103839.47
2019-02-22T19:14:11.019Z,103814.38
2019-02-22T19:16:41.801Z,103850.41
2019-02-22T19:19:14.387Z,103838.24
2019-02-22T19:21:45.973Z,103836.97
2019-02-22T19:24:16.509Z,103847.41
2019-02-22T19:26:48.636Z,103855.70
2019-02-22T19:29:19.050Z,103840.95
2019-02-22T19:31:49.620Z,103846.17
2019-02-22T19:34:20.256Z,103855.30
2019-02-22T19:36:51.916Z,103859.22
2019-02-22T19:39:22.558Z,103866.19
2019-02-22T19:41:53.248Z,103863.13
2019-02-22T19:44:23.808Z,103871.81
2019-02-22T19:46:55.728Z,103874.87
2019-02-22T19:49:26.412Z,103873.14
2019-02-22T19:51:56.963Z,103885.33
2019-02-22T19:54:27.503Z,103887.05
2019-02-22T19:56:58.020Z,103890.56
2019-02-22T19:59:28.584Z,103889.70
2019-02-22T20:01:59.138Z,103878.84
2019-02-22T20:04:29.683Z,103891.00
2019-02-22T20:07:00.202Z,103888.83
2019-02-22T20:09:30.780Z,103880.58
2019-02-22T20:12:01.362Z,103879.28
2019-02-22T20:14:31.891Z,103880.16
2019-02-22T20:17:02.458Z,103886.27
2019-02-22T20:19:33.129Z,103889.73
2019-02-22T20:22:03.703Z,103893.20
2019-02-22T20:24:34.234Z,103891.03
2019-02-22T20:27:04.792Z,103883.66
2019-02-22T20:29:35.526Z,103880.17
2019-02-22T20:32:06.045Z,103881.91
2019-02-22T20:34:36.579Z,103876.69
2019-02-22T20:37:07.201Z,103892.33
2019-02-22T20:39:37.921Z,103891.47
2019-02-22T20:42:08.460Z,103889.29
2019-02-22T20:44:39.041Z,103894.05
2019-02-22T20:47:09.620Z,103887.52
2019-02-22T20:49:40.088Z,103879.71
2019-02-22T20:52:10.585Z,103878.84
2019-02-22T20:54:41.267Z,103874.07
2019-02-22T20:57:11.795Z,103884.09
2019-02-22T20:59:42.375Z,103896.66
2019-02-22T21:02:12.894Z,103895.78
2019-02-22T21:04:43.433Z,103899.72
2019-02-22T21:07:13.936Z,103912.30
2019-02-22T21:09:44.376Z,103900.99
2019-02-22T21:12:14.960Z,103899.28
2019-02-22T21:14:45.460Z,103905.33
2019-02-22T21:17:16.021Z,103910.11
2019-02-22T21:19:46.584Z,103920.11
2019-02-22T21:22:17.092Z,103926.60
2019-02-22T21:24:47.676Z,103936.15
2019-02-22T21:27:18.224Z,103924.42
2019-02-22T21:29:48.778Z,103936.59
2019-02-22T21:32:19.260Z,103944.36
2019-02-22T21:34:49.838Z,103948.28
2019-02-22T21:37:20.426Z,103951.70
2019-02-22T21:39:50.959Z,103957.36
2019-02-22T21:42:21.424Z,103959.95
2019-02-22T21:44:51.967Z,103955.64
2019-02-22T21:47:22.500Z,103959.95
2019-02-22T21:49:53.008Z,103971.67
2019-02-22T21:52:23.612Z,103978.19
2019-02-22T21:54:54.142Z,103982.06
2019-02-22T21:57:24.620Z,103992.04
2019-02-22T21:59:55.154Z,103995.50
2019-02-22T22:02:25.701Z,103983.77
2019-02-22T22:04:56.309Z,103988.97
2019-02-22T22:07:26.848Z,103988.54
2019-02-22T22:09:57.574Z,103998.09
2019-02-22T22:12:28.116Z,103999.77
2019-02-22T22:14:58.785Z,104008.91
2019-02-22T22:17:29.608Z,103996.70
2019-02-22T22:20:00.341Z,104000.56
2019-02-22T22:22:31.198Z,103996.69
2019-02-22T22:25:02.092Z,103999.70
2019-02-22T22:27:32.825Z,103990.19
2019-02-22T22:30:32.665Z,103989.34
2019-02-22T22:33:21.441Z,103991.91
2019-02-22T22:35:52.968Z,103998.02
